Time;durP1;ratioP1;P1;durP2;ratioP2;P2;SDS_P1;SDS_P2;PMS_P1;PMS_P2;Temp;Humidity;BMP_temperature;BMP_pressure;BME280_temperature;BME280_humidity;BME280_pressure;Samples;Min_cycle;Max_cycle;Signal;HPM_P1;HPM_P2
2022/02/17 06:58:33;;;;;;;36.80;9.23;;;15.20;78.50;;;;;;5106458;27;20529;-70
2022/02/17 07:00:59;;;;;;;34.53;8.80;;;15.40;52.50;;;;;;5105867;28;20141;-72
2022/02/17 07:03:25;;;;;;;;;;;15.20;52.90;;;;;;5107033;28;20076;-70
2022/02/17 07:05:52;;;;;;;34.95;7.40;;;15.00;53.70;;;;;;5109295;28;19956;-70
2022/02/17 07:08:18;;;;;;;;;;;14.90;54.60;;;;;;5106683;28;20766;-71
2022/02/17 07:10:57;;;;;;;28.45;6.57;;;14.80;55.60;;;;;;5107077;28;20061;-74
2022/02/17 07:13:28;;;;;;;26.80;6.47;;;14.70;56.30;;;;;;5105573;28;20117;-72
2022/02/17 07:15:55;;;;;;;27.77;5.82;;;14.70;57.40;;;;;;5111179;22;20092;-73
2022/02/17 07:18:23;;;;;;;25.88;5.38;;;14.70;58.10;;;;;;5044533;28;20105;-73
2022/02/17 07:20:51;;;;;;;26.30;4.55;;;14.80;58.60;;;;;;5046232;28;20169;-71
2022/02/17 07:23:20;;;;;;;22.80;4.57;;;14.70;58.90;;;;;;5047985;28;20157;-71
2022/02/17 07:25:47;;;;;;;20.80;4.70;;;14.70;59.40;;;;;;5031885;28;20095;-75
2022/02/17 07:28:14;;;;;;;20.45;5.35;;;14.70;59.70;;;;;;5049283;28;20144;-70
2022/02/17 07:30:42;;;;;;;20.90;6.45;;;14.60;59.00;;;;;;5047944;28;20097;-70
2022/02/17 07:33:08;;;;;;;28.42;6.97;;;14.50;61.80;;;;;;5054202;28;20073;-72
2022/02/17 07:35:35;;;;;;;30.38;7.57;;;14.60;59.60;;;;;;5011958;28;20090;-72
2022/02/17 07:38:02;;;;;;;27.20;6.97;;;14.50;59.60;;;;;;5043724;28;20482;-71
2022/02/17 07:40:29;;;;;;;24.52;7.00;;;14.40;60.00;;;;;;5048612;28;20092;-70
2022/02/17 07:42:56;;;;;;;23.25;6.32;;;14.30;60.40;;;;;;5044982;28;20086;-71
2022/02/17 07:45:23;;;;;;;38.53;6.38;;;14.30;61.00;;;;;;5048008;28;20157;-69
2022/02/17 07:47:51;;;;;;;20.20;5.82;;;14.30;61.60;;;;;;5048867;28;20077;-72
2022/02/17 07:50:20;;;;;;;27.23;6.68;;;14.30;61.90;;;;;;5050537;28;20096;-68
2022/02/17 07:52:47;;;;;;;26.50;6.93;;;14.30;62.20;;;;;;5047049;28;20574;-70
2022/02/17 07:55:14;;;;;;;36.63;7.95;;;14.30;62.70;;;;;;5051198;28;20590;-70
2022/02/17 07:57:41;;;;;;;24.35;5.60;;;14.20;62.70;;;;;;5043535;28;20173;-70
2022/02/17 08:00:11;;;;;;;17.13;5.65;;;14.10;63.00;;;;;;5048646;28;20120;-69
2022/02/17 08:02:38;;;;;;;22.33;4.90;;;14.10;63.50;;;;;;5046392;28;20097;-69
2022/02/17 08:05:05;;;;;;;25.60;4.70;;;14.00;64.40;;;;;;5059791;28;20538;-70
2022/02/17 08:07:31;;;;;;;18.00;4.65;;;14.00;64.90;;;;;;5042631;28;20082;-70
2022/02/17 08:09:58;;;;;;;;;;;13.90;65.10;;;;;;5032957;28;20081;-71
2022/02/17 08:12:25;;;;;;;28.98;6.70;;;13.90;66.30;;;;;;5029968;28;19958;-69
2022/02/17 08:14:51;;;;;;;21.33;6.70;;;13.90;66.80;;;;;;5032929;28;20097;-70
2022/02/17 08:17:18;;;;;;;33.53;7.03;;;13.80;66.80;;;;;;5030935;28;20113;-70
2022/02/17 08:19:44;;;;;;;;;;;13.80;67.30;;;;;;5033525;28;20090;-71
2022/02/17 08:22:11;;;;;;;26.27;7.72;;;13.80;67.50;;;;;;5029454;28;20000;-69
2022/02/17 08:24:38;;;;;;;29.55;7.80;;;13.80;67.80;;;;;;5047187;28;20120;-69
2022/02/17 08:27:04;;;;;;;;;;;13.70;68.40;;;;;;5047677;28;20074;-70
2022/02/17 08:29:31;;;;;;;31.65;9.55;;;13.60;68.90;;;;;;5034102;28;19965;-69
2022/02/17 08:31:58;;;;;;;39.08;9.90;;;13.60;69.30;;;;;;5033704;28;20070;-69
2022/02/17 08:34:25;;;;;;;48.20;11.40;;;13.60;69.60;;;;;;5034427;28;20074;-69
2022/02/17 08:36:52;;;;;;;32.05;10.32;;;13.50;70.20;;;;;;5030686;28;20086;-71
2022/02/17 08:39:18;;;;;;;33.13;10.77;;;13.50;70.40;;;;;;5033895;28;20087;-69
2022/02/17 08:41:45;;;;;;;41.78;11.23;;;13.60;70.80;;;;;;5029361;28;20066;-69
2022/02/17 08:44:11;;;;;;;37.33;11.40;;;13.50;70.80;;;;;;5029122;28;20103;-70
2022/02/17 08:46:37;;;;;;;;;;;13.50;71.30;;;;;;5029646;28;20094;-69
2022/02/17 08:49:06;;;;;;;47.80;13.43;;;13.40;71.60;;;;;;5035271;28;19973;-69
2022/02/17 08:51:32;;;;;;;45.83;12.50;;;13.40;72.10;;;;;;5032526;28;20100;-70
2022/02/17 08:53:58;;;;;;;;;;;13.30;72.00;;;;;;5032011;28;20093;-70
2022/02/17 08:56:25;;;;;;;54.90;13.60;;;13.30;89.10;;;;;;5033137;28;20370;-70
2022/02/17 08:58:52;;;;;;;50.05;14.50;;;13.60;79.10;;;;;;5031800;28;20720;-70
2022/02/17 09:01:18;;;;;;;;;;;13.20;73.60;;;;;;5035379;28;20078;-70
2022/02/17 09:03:44;;;;;;;59.47;14.68;;;13.10;78.20;;;;;;5028985;28;19980;-70
2022/02/17 09:06:11;;;;;;;43.42;14.45;;;13.00;95.00;;;;;;5033416;28;20080;-71
2022/02/17 09:08:37;;;;;;;53.17;13.93;;;13.10;74.20;;;;;;5033451;28;20104;-69
2022/02/17 09:11:04;;;;;;;;;;;13.20;82.00;;;;;;5027360;28;20080;-70
2022/02/17 09:13:31;;;;;;;50.93;14.03;;;13.20;74.30;;;;;;5032633;28;20331;-70
2022/02/17 09:15:58;;;;;;;42.33;14.98;;;13.00;95.30;;;;;;5034360;28;20065;-71
2022/02/17 09:18:25;;;;;;;45.85;14.90;;;13.20;74.60;;;;;;5030355;28;20479;-70
2022/02/17 09:20:51;;;;;;;41.35;14.75;;;13.10;96.50;;;;;;5032068;28;20078;-69
2022/02/17 09:23:19;;;;;;;;;;;13.10;75.30;;;;;;5029129;28;20094;-69
2022/02/17 09:25:45;;;;;;;;;;;13.00;76.20;;;;;;5033243;28;19957;-69
2022/02/17 09:28:11;;;;;;;54.17;16.98;;;13.00;89.00;;;;;;5029762;28;19987;-69
2022/02/17 09:30:37;;;;;;;;;;;12.80;77.00;;;;;;5032836;28;20091;-70
2022/02/17 09:33:04;;;;;;;53.03;17.52;;;13.10;91.60;;;;;;5039975;28;19909;-70
2022/02/17 09:35:30;;;;;;;67.80;17.92;;;;;;;;;;5033533;28;20098;-69
2022/02/17 09:37:56;;;;;;;;;;;13.10;77.30;;;;;;5028997;28;20124;-69
2022/02/17 09:40:24;;;;;;;70.45;19.00;;;13.00;78.20;;;;;;5028223;28;19958;-70
2022/02/17 09:42:51;;;;;;;49.95;17.70;;;12.90;78.10;;;;;;5032337;28;20089;-69
2022/02/17 09:45:17;;;;;;;58.25;18.73;;;12.90;77.90;;;;;;5027581;28;20074;-69
2022/02/17 09:47:45;;;;;;;66.97;20.77;;;12.90;78.00;;;;;;5026967;28;20086;-69
2022/02/17 09:50:14;;;;;;;59.10;18.38;;;13.00;78.10;;;;;;5030306;28;20081;-69
2022/02/17 09:52:42;;;;;;;49.28;19.30;;;12.70;87.50;;;;;;5029929;28;20077;-69
2022/02/17 09:55:16;;;;;;;62.85;19.75;;;13.00;80.60;;;;;;5033672;28;20101;-69
2022/02/17 09:57:43;;;;;;;56.60;19.88;;;12.90;78.00;;;;;;5014257;28;20078;-69
2022/02/17 10:00:12;;;;;;;55.20;17.98;;;13.00;78.00;;;;;;5032873;28;20101;-69
2022/02/17 10:02:39;;;;;;;41.22;15.27;;;13.00;77.90;;;;;;5031275;28;20070;-69
2022/02/17 10:05:07;;;;;;;43.17;12.73;;;12.90;77.30;;;;;;5029687;28;20485;-68
2022/02/17 10:07:36;;;;;;;33.90;11.88;;;12.90;77.30;;;;;;5031449;28;20475;-69
2022/02/17 10:10:09;;;;;;;33.15;11.50;;;12.70;77.80;;;;;;5031740;28;20085;-68
2022/02/17 10:13:04;;;;;;;34.42;10.90;;;12.70;79.30;;;;;;5030207;28;20546;-68
2022/02/17 10:15:38;;;;;;;34.90;11.60;;;12.70;79.50;;;;;;5032762;28;20548;-68
2022/02/17 10:18:14;;;;;;;35.90;11.70;;;12.70;80.20;;;;;;5030790;28;20128;-69
2022/02/17 10:21:06;;;;;;;32.63;12.70;;;12.60;81.00;;;;;;5030650;28;20097;-68
2022/02/17 10:23:44;;;;;;;39.95;13.70;;;12.60;81.20;;;;;;5011135;28;20080;-67
2022/02/17 10:26:23;;;;;;;40.35;13.57;;;12.60;81.50;;;;;;5012297;28;20089;-69
2022/02/17 10:28:55;;;;;;;40.33;14.10;;;12.50;81.90;;;;;;5029852;28;20108;-69
2022/02/17 10:31:29;;;;;;;34.63;14.60;;;12.50;82.50;;;;;;5028434;28;20744;-69
2022/02/17 10:33:58;;;;;;;43.47;15.63;;;12.40;82.80;;;;;;5030149;28;20532;-69
2022/02/17 10:36:38;;;;;;;37.75;14.95;;;12.40;83.80;;;;;;5031672;28;20100;-69
2022/02/17 10:39:22;;;;;;;33.17;13.40;;;12.30;84.20;;;;;;5030135;28;20085;-69
2022/02/17 10:41:51;;;;;;;38.28;13.05;;;12.30;84.60;;;;;;5031761;28;20069;-70
2022/02/17 10:44:19;;;;;;;30.80;12.60;;;12.20;84.80;;;;;;5026018;28;20160;-69
2022/02/17 10:46:46;;;;;;;40.35;14.65;;;12.30;84.60;;;;;;5043010;28;20093;-69
2022/02/17 10:49:15;;;;;;;30.95;11.77;;;12.30;84.80;;;;;;5035306;28;20074;-70
2022/02/17 10:51:42;;;;;;;31.52;13.02;;;12.30;84.10;;;;;;5029333;28;20080;-70
2022/02/17 10:54:09;;;;;;;40.28;12.75;;;12.30;84.10;;;;;;5011391;28;20070;-69
2022/02/17 10:56:36;;;;;;;27.67;12.75;;;12.30;84.30;;;;;;5028559;28;20078;-69
2022/02/17 11:01:56;;;;;;;33.03;12.32;;;12.20;84.50;;;;;;4999363;28;20113;-69
2022/02/17 11:04:26;;;;;;;45.15;12.57;;;12.20;84.50;;;;;;5030193;28;20074;-68
2022/02/17 11:06:52;;;;;;;34.30;11.80;;;12.10;84.70;;;;;;5032172;28;20552;-69
2022/02/17 11:09:20;;;;;;;36.25;12.80;;;11.90;85.10;;;;;;5030765;28;20093;-69
2022/02/17 11:11:51;;;;;;;48.88;14.02;;;12.00;85.90;;;;;;5027380;28;20520;-70
2022/02/17 11:14:42;;;;;;;44.05;13.65;;;12.10;86.30;;;;;;5047954;28;20128;-69
2022/02/17 11:17:10;;;;;;;49.33;13.15;;;12.00;85.90;;;;;;5026218;28;20116;-69
2022/02/17 11:19:37;;;;;;;44.75;13.80;;;12.00;86.10;;;;;;5030898;28;20089;-69
2022/02/17 11:22:05;;;;;;;44.78;13.85;;;11.90;86.50;;;;;;5027521;28;20459;-69
2022/02/17 11:24:52;;;;;;;45.28;13.18;;;11.90;87.20;;;;;;5029667;28;20082;-70
2022/02/17 11:27:20;;;;;;;41.38;12.65;;;11.80;86.80;;;;;;5029050;28;20097;-69
2022/02/17 11:29:47;;;;;;;36.95;13.95;;;11.70;87.20;;;;;;5025143;28;20443;-69
2022/02/17 11:32:17;;;;;;;49.80;14.48;;;11.60;87.40;;;;;;5026595;28;20094;-69
2022/02/17 11:34:53;;;;;;;51.88;15.75;;;11.50;87.90;;;;;;5028700;28;20161;-68
2022/02/17 11:37:45;;;;;;;55.30;15.95;;;11.50;87.80;;;;;;5030152;28;20109;-70
2022/02/17 11:40:16;;;;;;;63.22;16.98;;;11.50;88.00;;;;;;5024693;28;20083;-69
2022/02/17 11:42:46;;;;;;;56.90;15.70;;;11.50;88.10;;;;;;5028232;28;20073;-70
2022/02/17 11:45:23;;;;;;;52.25;16.30;;;11.40;88.10;;;;;;5029968;28;20161;-69
2022/02/17 11:48:10;;;;;;;48.92;15.07;;;11.50;88.10;;;;;;5033462;28;20097;-69
2022/02/17 11:50:40;;;;;;;52.30;15.27;;;11.40;87.90;;;;;;5029683;28;20519;-70
2022/02/17 11:53:38;;;;;;;51.10;15.38;;;11.40;87.90;;;;;;5037161;28;20066;-69
2022/02/17 11:58:49;;;;;;;50.30;15.88;;;11.50;87.70;;;;;;5033130;28;20164;-69
2022/02/17 12:01:25;;;;;;;61.13;16.50;;;11.60;87.90;;;;;;5047298;28;20070;-69
2022/02/17 12:04:14;;;;;;;56.33;17.10;;;11.50;87.30;;;;;;5033450;28;20113;-68
2022/02/17 12:06:46;;;;;;;50.00;16.08;;;11.50;87.60;;;;;;5031021;28;20094;-69
2022/02/17 12:09:47;;;;;;;58.90;15.77;;;11.40;86.90;;;;;;5014389;28;20070;-69
2022/02/17 12:12:16;;;;;;;58.55;16.17;;;11.40;86.40;;;;;;5034350;28;20092;-68
2022/02/17 12:14:46;;;;;;;47.05;13.75;;;11.40;86.00;;;;;;5030513;28;20077;-69
2022/02/17 12:17:14;;;;;;;52.35;13.98;;;11.30;83.30;;;;;;5015309;28;20101;-69
2022/02/17 12:19:40;;;;;;;42.38;13.10;;;11.30;82.20;;;;;;5031932;28;20086;-69
2022/02/17 12:22:12;;;;;;;45.90;13.70;;;11.30;81.20;;;;;;5032620;28;20538;-69
2022/02/17 12:24:42;;;;;;;46.45;14.15;;;11.20;80.60;;;;;;5030660;28;20097;-69
2022/02/17 12:27:19;;;;;;;39.88;14.68;;;11.20;80.50;;;;;;5031197;28;20092;-68
2022/02/17 12:29:46;;;;;;;44.65;15.00;;;11.10;80.60;;;;;;5034050;28;20076;-68
2022/02/17 12:32:19;;;;;;;;;;;11.10;80.70;;;;;;5029889;28;20078;-69
2022/02/17 12:34:45;;;;;;;42.17;14.05;;;11.00;80.70;;;;;;5032369;28;20048;-67
2022/02/17 12:37:20;;;;;;;50.83;14.05;;;10.90;81.10;;;;;;5033270;28;20481;-68
2022/02/17 12:39:51;;;;;;;50.78;13.35;;;10.80;81.30;;;;;;5032468;28;20084;-70
2022/02/17 12:42:21;;;;;;;41.03;11.18;;;10.80;81.10;;;;;;5032605;28;20349;-70
2022/02/17 12:44:51;;;;;;;33.28;10.50;;;10.80;80.60;;;;;;5030958;28;20432;-69
2022/02/17 12:47:17;;;;;;;40.22;12.10;;;10.80;80.30;;;;;;5013034;28;20110;-69
2022/02/17 12:49:44;;;;;;;36.30;12.30;;;10.90;80.00;;;;;;5030042;28;20073;-70
2022/02/17 12:52:11;;;;;;;47.38;14.40;;;10.80;79.60;;;;;;5028742;28;20074;-69
2022/02/17 12:54:40;;;;;;;42.65;14.00;;;10.80;79.30;;;;;;5029005;28;20081;-69
2022/02/17 12:57:10;;;;;;;45.88;14.63;;;10.80;79.10;;;;;;5013763;28;20459;-68
2022/02/17 12:59:38;;;;;;;46.97;15.50;;;10.80;78.90;;;;;;5013922;28;20070;-69
2022/02/17 13:02:05;;;;;;;42.05;14.75;;;10.80;78.50;;;;;;5012948;28;20086;-68
2022/02/17 13:04:32;;;;;;;39.90;14.57;;;10.70;78.50;;;;;;5030307;28;20070;-68
2022/02/17 13:07:04;;;;;;;39.88;12.90;;;10.70;78.10;;;;;;5032457;28;20100;-68
2022/02/17 13:09:30;;;;;;;34.58;12.90;;;10.70;77.50;;;;;;5028563;28;20074;-68
2022/02/17 13:12:03;;;;;;;;;;;10.70;76.80;;;;;;5032294;28;20072;-68
2022/02/17 13:14:32;;;;;;;30.35;10.30;;;10.70;76.40;;;;;;5034979;28;20362;-68
2022/02/17 13:17:10;;;;;;;33.92;8.98;;;10.70;76.20;;;;;;5032737;28;20102;-67
2022/02/17 13:19:41;;;;;;;31.88;9.70;;;10.70;75.50;;;;;;5030477;28;20089;-68
2022/02/17 13:22:10;;;;;;;32.20;9.10;;;10.70;75.50;;;;;;5030494;28;20081;-69
2022/02/17 13:24:37;;;;;;;29.50;8.95;;;10.60;75.20;;;;;;5028641;28;20073;-69
2022/02/17 13:27:16;;;;;;;32.35;8.38;;;10.70;75.40;;;;;;5030196;28;20090;-67
2022/02/17 13:29:54;;;;;;;30.92;7.68;;;10.60;75.20;;;;;;5037563;28;20119;-68
2022/02/17 13:32:22;;;;;;;22.55;6.47;;;10.60;75.50;;;;;;5031954;28;20968;-69
2022/02/17 13:34:48;;;;;;;27.73;6.00;;;10.60;75.70;;;;;;5029071;28;20161;-69
2022/02/17 13:37:14;;;;;;;;;;;10.60;74.80;;;;;;5039968;28;20119;-70
2022/02/17 13:39:41;;;;;;;25.83;5.63;;;10.60;88.50;;;;;;5031003;28;19965;-69
2022/02/17 13:42:09;;;;;;;24.13;4.28;;;10.60;75.10;;;;;;5030959;28;20074;-68
2022/02/17 13:44:39;;;;;;;24.33;3.58;;;10.70;72.40;;;;;;5037578;28;20094;-69
2022/02/17 13:47:07;;;;;;;8.93;2.10;;;10.70;76.60;;;;;;5028519;28;20085;-69
2022/02/17 13:49:36;;;;;;;10.70;1.80;;;11.60;70.30;;;;;;5033616;28;20074;-70
2022/02/17 13:52:03;;;;;;;11.55;1.70;;;11.30;57.70;;;;;;5029008;28;20074;-70
2022/02/17 13:54:55;;;;;;;17.70;1.80;;;11.50;56.50;;;;;;5044803;28;20077;-69
2022/02/17 13:57:23;;;;;;;12.23;1.55;;;11.50;56.30;;;;;;5030705;28;20144;-71
2022/02/17 13:59:50;;;;;;;13.00;1.70;;;11.80;58.30;;;;;;5037162;28;20080;-71
2022/02/17 14:02:30;;;;;;;11.57;1.45;;;11.80;53.60;;;;;;5031116;28;20560;-68
2022/02/17 14:05:08;;;;;;;10.95;1.88;;;12.10;65.50;;;;;;4996980;28;20455;-68
2022/02/17 14:07:36;;;;;;;11.13;1.00;;;12.20;49.10;;;;;;5014218;28;20089;-69
2022/02/17 14:10:07;;;;;;;9.80;1.55;;;12.20;49.60;;;;;;5039266;28;20073;-69
2022/02/17 14:12:34;;;;;;;14.35;1.92;;;12.50;51.20;;;;;;5029197;28;20593;-69
2022/02/17 14:15:03;;;;;;;16.90;1.40;;;12.40;57.50;;;;;;5028914;28;20070;-69
2022/02/17 14:17:31;;;;;;;11.48;1.70;;;12.60;47.20;;;;;;5031059;28;20681;-70
2022/02/17 14:19:58;;;;;;;14.50;1.40;;;12.60;47.20;;;;;;5028676;28;20147;-69
2022/02/17 14:22:25;;;;;;;15.13;1.65;;;12.70;47.00;;;;;;5027098;28;20077;-69
2022/02/17 14:24:53;;;;;;;14.52;1.45;;;12.70;47.10;;;;;;5044273;28;20092;-69
2022/02/17 14:27:20;;;;;;;15.35;1.50;;;12.70;46.90;;;;;;5030759;28;20089;-70
2022/02/17 14:29:47;;;;;;;11.75;1.75;;;12.60;46.70;;;;;;5045418;28;20494;-69
2022/02/17 14:32:13;;;;;;;12.50;1.80;;;12.60;46.60;;;;;;5028428;28;20074;-69
2022/02/17 14:37:25;;;;;;;19.75;2.10;;;12.60;47.00;;;;;;5090306;28;20121;-68
2022/02/17 14:39:52;;;;;;;18.65;1.83;;;12.70;52.00;;;;;;5092214;28;20103;-68
2022/02/17 14:42:18;;;;;;;19.13;1.98;;;12.70;73.00;;;;;;5087867;28;20519;-68
2022/02/17 14:44:44;;;;;;;;;;;12.40;47.20;;;;;;5088470;28;20597;-70
2022/02/17 14:47:11;;;;;;;9.77;1.80;;;12.50;46.80;;;;;;5086356;28;20083;-69
2022/02/17 14:49:38;;;;;;;21.52;2.53;;;12.50;46.60;;;;;;5088279;28;20415;-68
2022/02/17 14:52:05;;;;;;;31.23;2.38;;;12.60;45.70;;;;;;5086430;28;20145;-68
2022/02/17 14:54:32;;;;;;;13.30;1.50;;;12.60;45.60;;;;;;5086029;28;20434;-68
2022/02/17 14:56:59;;;;;;;28.15;2.80;;;12.60;45.30;;;;;;5087076;28;20076;-68
2022/02/17 14:59:25;;;;;;;24.17;2.70;;;12.70;45.10;;;;;;5087834;28;20077;-69
2022/02/17 15:01:52;;;;;;;15.15;3.67;;;12.80;52.00;;;;;;5070860;28;20115;-69
2022/02/17 15:04:18;;;;;;;23.73;6.95;;;13.00;49.20;;;;;;5087038;28;20080;-69
2022/02/17 15:06:45;;;;;;;23.48;5.50;;;12.80;44.60;;;;;;5086677;28;20097;-69
2022/02/17 15:09:12;;;;;;;18.75;3.78;;;12.90;55.90;;;;;;5087215;28;20077;-71
2022/02/17 15:11:39;;;;;;;22.30;2.92;;;;;;;;;;5087609;28;20076;-68
2022/02/17 15:14:06;;;;;;;11.60;1.75;;;12.90;45.00;;;;;;5086924;28;20094;-67
2022/02/17 15:16:32;;;;;;;25.55;2.25;;;13.00;43.50;;;;;;5087855;28;20159;-69
2022/02/17 15:18:59;;;;;;;16.35;2.17;;;13.50;57.60;;;;;;5088036;28;20092;-69
2022/02/17 15:21:25;;;;;;;16.95;2.13;;;13.10;46.30;;;;;;5091162;28;20108;-69
2022/02/17 15:23:52;;;;;;;17.55;1.98;;;13.20;43.90;;;;;;5090738;28;20518;-70
2022/02/17 15:26:18;;;;;;;;;;;13.30;43.70;;;;;;5092476;28;20122;-68
2022/02/17 15:28:44;;;;;;;26.35;2.35;;;13.20;51.40;;;;;;5072008;28;20392;-69
2022/02/17 15:31:10;;;;;;;;;;;13.40;43.80;;;;;;5091176;28;20081;-69
2022/02/17 15:33:37;;;;;;;21.25;2.35;;;13.50;43.80;;;;;;5091024;28;19984;-69
2022/02/17 15:36:07;;;;;;;26.08;2.20;;;13.50;44.30;;;;;;5091983;28;20114;-71
2022/02/17 15:38:34;;;;;;;23.42;2.30;;;13.60;44.90;;;;;;5093383;28;20075;-71
2022/02/17 15:41:01;;;;;;;;;;;13.70;44.50;;;;;;5090479;28;20080;-69
2022/02/17 15:43:28;;;;;;;25.57;2.43;;;13.80;43.90;;;;;;5091264;28;20550;-69
2022/02/17 15:45:55;;;;;;;21.77;2.25;;;13.80;43.60;;;;;;5089870;28;20076;-71
2022/02/17 15:48:22;;;;;;;29.45;2.67;;;13.90;43.00;;;;;;5090448;28;20092;-68
2022/02/17 15:50:48;;;;;;;;;;;14.10;41.30;;;;;;5092103;28;20072;-69
2022/02/17 15:53:14;;;;;;;23.13;2.50;;;14.30;40.20;;;;;;5090616;28;19965;-72
2022/02/17 15:55:41;;;;;;;;;;;14.40;39.30;;;;;;5071936;28;20096;-70
2022/02/17 15:58:07;;;;;;;19.15;2.25;;;14.60;38.50;;;;;;5091603;28;19964;-69
2022/02/17 16:00:34;;;;;;;25.23;2.55;;;14.80;38.50;;;;;;5090776;28;20088;-68
2022/02/17 16:03:01;;;;;;;29.83;2.80;;;14.90;38.50;;;;;;5091302;28;20546;-67
2022/02/17 16:05:28;;;;;;;28.63;2.58;;;15.00;38.20;;;;;;5097484;28;20093;-69
2022/02/17 16:07:54;;;;;;;30.23;2.72;;;15.10;37.60;;;;;;5091638;28;20084;-69
2022/02/17 16:10:20;;;;;;;;;;;15.30;36.90;;;;;;5092801;28;20077;-68
2022/02/17 16:12:47;;;;;;;15.00;2.00;;;15.50;35.90;;;;;;5092344;28;19972;-68
2022/02/17 16:15:15;;;;;;;26.77;2.00;;;15.60;34.80;;;;;;5095083;28;20068;-69
2022/02/17 16:17:42;;;;;;;21.38;2.10;;;15.80;34.30;;;;;;5090311;28;20088;-68
2022/02/17 16:20:10;;;;;;;28.92;2.10;;;;;;;;;;5090251;28;20506;-68
2022/02/17 16:22:38;;;;;;;18.17;1.77;;;16.30;31.90;;;;;;5090428;28;20666;-68
2022/02/17 16:25:04;;;;;;;31.67;2.33;;;16.40;32.40;;;;;;5088845;28;20167;-68
2022/02/17 16:27:31;;;;;;;20.30;1.98;;;16.60;32.40;;;;;;5095550;28;20096;-67
2022/02/17 16:29:57;;;;;;;;;;;17.20;31.40;;;;;;5089929;28;20069;-70
2022/02/17 16:32:23;;;;;;;17.13;1.92;;;17.50;31.10;;;;;;5088234;28;20325;-68
2022/02/17 16:34:49;;;;;;;;;;;18.30;31.30;;;;;;5093340;28;20108;-69
2022/02/17 16:37:16;;;;;;;15.65;2.17;;;19.70;59.10;;;;;;5088943;28;19971;-69
2022/02/17 16:39:44;;;;;;;16.02;1.33;;;;;;;;;;5089974;28;20032;-68
2022/02/17 16:42:11;;;;;;;14.43;2.00;;;21.30;37.20;;;;;;5090355;28;20444;-68
2022/02/17 16:44:38;;;;;;;25.27;2.38;;;21.40;27.30;;;;;;5089163;28;20069;-68
2022/02/17 16:47:06;;;;;;;15.45;1.65;;;21.90;25.60;;;;;;5089839;28;20089;-68
2022/02/17 16:49:33;;;;;;;16.42;1.38;;;22.00;25.50;;;;;;5088915;28;20172;-69
2022/02/17 16:51:59;;;;;;;12.48;1.25;;;22.50;25.50;;;;;;5089032;28;20069;-69
2022/02/17 16:54:26;;;;;;;13.05;0.95;;;23.00;22.90;;;;;;5087903;28;20021;-67
2022/02/17 16:56:52;;;;;;;11.13;1.15;;;23.00;22.70;;;;;;5088677;28;20710;-69
2022/02/17 16:59:19;;;;;;;32.35;1.90;;;23.30;22.90;;;;;;5088628;28;20105;-69
2022/02/17 17:01:47;;;;;;;23.67;1.60;;;23.40;22.70;;;;;;5090107;28;20171;-68
2022/02/17 17:04:14;;;;;;;23.80;1.77;;;23.20;22.70;;;;;;5089852;28;20085;-68
2022/02/17 17:06:41;;;;;;;18.10;1.67;;;23.20;22.70;;;;;;5087043;28;21951;-69
2022/02/17 17:09:07;;;;;;;25.70;2.83;;;22.70;23.60;;;;;;5089968;28;20080;-69
2022/02/17 17:11:34;;;;;;;22.20;2.35;;;23.30;23.20;;;;;;5089448;28;20127;-66
2022/02/17 17:14:01;;;;;;;11.23;1.45;;;23.00;22.90;;;;;;5091236;28;20083;-70
2022/02/17 17:16:29;;;;;;;14.43;1.20;;;23.20;23.30;;;;;;5088368;28;20069;-67
2022/02/17 17:18:56;;;;;;;11.13;1.25;;;23.40;22.90;;;;;;5089609;28;20100;-68
2022/02/17 17:21:23;;;;;;;10.90;1.10;;;23.00;23.30;;;;;;5088777;28;20506;-67
2022/02/17 17:23:50;;;;;;;12.60;0.90;;;23.60;22.90;;;;;;5089127;28;20561;-69
2022/02/17 17:26:17;;;;;;;11.43;1.08;;;23.60;22.00;;;;;;5090509;28;20128;-69
2022/02/17 17:28:44;;;;;;;12.25;1.42;;;23.40;21.90;;;;;;5101966;28;20162;-69
2022/02/17 17:31:10;;;;;;;11.75;1.50;;;23.70;21.90;;;;;;5087628;28;20089;-69
2022/02/17 17:33:37;;;;;;;13.38;1.08;;;23.40;22.80;;;;;;5088922;28;20458;-68
2022/02/17 17:36:06;;;;;;;12.80;1.40;;;24.20;22.70;;;;;;5089615;28;20069;-69
2022/02/17 17:38:36;;;;;;;11.50;1.58;;;24.20;22.20;;;;;;5089243;28;20073;-69
2022/02/17 17:41:05;;;;;;;13.35;1.20;;;24.10;22.40;;;;;;5088922;28;20073;-69
2022/02/17 17:43:31;;;;;;;19.08;1.50;;;23.20;22.80;;;;;;5088754;28;20550;-69
2022/02/17 17:45:58;;;;;;;8.95;1.23;;;23.40;23.00;;;;;;5091677;28;20080;-69
2022/02/17 17:48:25;;;;;;;13.63;1.50;;;23.80;21.40;;;;;;5089452;28;20092;-69
2022/02/17 17:50:51;;;;;;;14.57;1.65;;;24.60;20.90;;;;;;5088253;28;20136;-68
2022/02/17 17:53:18;;;;;;;18.25;2.67;;;24.00;20.80;;;;;;5088062;28;20491;-68
2022/02/17 17:55:45;;;;;;;13.70;2.00;;;24.00;21.10;;;;;;5089663;28;20526;-70
2022/02/17 17:58:14;;;;;;;7.85;1.05;;;23.60;21.00;;;;;;5089462;28;20169;-69
2022/02/17 18:00:43;;;;;;;11.05;1.17;;;24.20;21.10;;;;;;5089607;28;20080;-69
2022/02/17 18:03:10;;;;;;;9.57;1.20;;;24.30;20.60;;;;;;5087881;28;20100;-68
2022/02/17 18:05:38;;;;;;;8.00;1.00;;;24.30;21.00;;;;;;5092358;28;20546;-68
2022/02/17 18:08:06;;;;;;;13.18;1.60;;;24.80;19.40;;;;;;5091098;28;20089;-69
2022/02/17 18:10:33;;;;;;;13.70;1.00;;;25.30;19.40;;;;;;5088089;28;20552;-67
2022/02/17 18:13:00;;;;;;;6.65;1.10;;;25.50;19.90;;;;;;5094665;28;20047;-68
2022/02/17 18:15:27;;;;;;;10.40;1.40;;;26.30;19.90;;;;;;5086730;28;20634;-69
2022/02/17 18:17:54;;;;;;;16.30;1.33;;;26.70;19.90;;;;;;5088137;28;20162;-68
2022/02/17 18:20:22;;;;;;;16.35;1.55;;;25.60;18.20;;;;;;5089579;28;20166;-69
2022/02/17 18:22:49;;;;;;;16.25;1.65;;;25.60;18.30;;;;;;5092592;28;20074;-69
2022/02/17 18:25:20;;;;;;;11.13;1.15;;;25.80;18.20;;;;;;5089353;28;20080;-67
2022/02/17 18:27:48;;;;;;;11.30;1.27;;;25.50;18.60;;;;;;5091068;28;20082;-68
2022/02/17 18:30:15;;;;;;;10.93;0.88;;;25.60;18.10;;;;;;5086436;28;20071;-69
2022/02/17 18:32:43;;;;;;;13.48;1.63;;;26.40;18.10;;;;;;5087486;28;20069;-68
2022/02/17 18:35:10;;;;;;;11.68;1.85;;;26.90;18.30;;;;;;5088018;28;20094;-67
2022/02/17 18:37:37;;;;;;;10.82;1.30;;;27.20;17.40;;;;;;5087460;28;20099;-69
2022/02/17 18:40:04;;;;;;;9.88;2.05;;;27.10;17.60;;;;;;5088709;28;20075;-67
2022/02/17 18:42:31;;;;;;;9.63;1.02;;;27.00;17.50;;;;;;5092782;28;20102;-67
2022/02/17 18:45:15;;;;;;;12.77;1.48;;;26.20;17.90;;;;;;5087000;28;20068;-69
2022/02/17 18:47:44;;;;;;;13.30;1.38;;;27.00;17.80;;;;;;5089106;28;20078;-68
2022/02/17 18:50:13;;;;;;;9.10;1.45;;;26.80;18.90;;;;;;5087885;28;20065;-68
2022/02/17 18:52:40;;;;;;;9.85;1.33;;;26.70;16.60;;;;;;5087791;28;20083;-69
2022/02/17 18:55:09;;;;;;;5.80;1.05;;;;;;;;;;5086791;28;20421;-68
2022/02/17 18:57:36;;;;;;;9.60;1.08;;;;;;;;;;5088616;28;20502;-66
2022/02/17 19:00:05;;;;;;;19.33;1.42;;;25.60;28.00;;;;;;5086781;28;20477;-68
2022/02/17 19:02:31;;;;;;;18.85;1.77;;;26.10;16.90;;;;;;5087109;28;20450;-69
2022/02/17 19:04:58;;;;;;;14.77;1.67;;;25.20;19.80;;;;;;5070268;28;20086;-67
2022/02/17 19:07:24;;;;;;;11.88;1.25;;;24.70;18.40;;;;;;5087151;28;20084;-67
2022/02/17 19:09:51;;;;;;;8.18;1.00;;;24.20;18.50;;;;;;5087863;28;20425;-68
2022/02/17 19:12:17;;;;;;;11.32;1.20;;;24.10;19.20;;;;;;5087192;28;20069;-68
2022/02/17 19:14:43;;;;;;;7.82;0.98;;;23.90;19.90;;;;;;5087857;28;20168;-72
2022/02/17 19:17:10;;;;;;;12.80;1.10;;;24.20;19.20;;;;;;5086864;28;20178;-70
2022/02/17 19:19:36;;;;;;;12.80;1.23;;;23.80;19.70;;;;;;5088173;28;20101;-70
2022/02/17 19:22:04;;;;;;;8.15;0.95;;;23.80;20.10;;;;;;5087281;28;20090;-71
2022/02/17 19:24:32;;;;;;;10.75;0.95;;;24.10;21.90;;;;;;5087496;28;20126;-68
2022/02/17 19:26:58;;;;;;;11.38;1.20;;;24.20;19.00;;;;;;5085858;28;20140;-67
2022/02/17 19:29:25;;;;;;;12.43;1.48;;;24.20;17.90;;;;;;5085888;28;20080;-66
2022/02/17 19:31:52;;;;;;;14.13;1.27;;;24.00;17.60;;;;;;5089400;28;20064;-71
2022/02/17 19:34:19;;;;;;;12.40;1.50;;;23.90;17.60;;;;;;5087582;28;20108;-65
2022/02/17 19:36:46;;;;;;;9.07;0.98;;;23.70;17.60;;;;;;5087736;28;20069;-66
2022/02/17 19:39:13;;;;;;;7.40;0.90;;;23.70;17.90;;;;;;5087676;28;20076;-65
2022/02/17 19:41:39;;;;;;;10.82;1.42;;;23.70;18.00;;;;;;5088174;28;20129;-65
2022/02/17 19:44:06;;;;;;;13.32;1.60;;;23.50;18.10;;;;;;5087664;28;20077;-65
2022/02/17 19:46:33;;;;;;;22.45;5.43;;;22.90;18.30;;;;;;5089736;28;20151;-65
2022/02/17 19:49:00;;;;;;;11.80;2.22;;;22.40;18.90;;;;;;5087640;28;20069;-65
2022/02/17 19:51:26;;;;;;;14.02;1.10;;;22.40;19.40;;;;;;5087959;28;20092;-66
2022/02/17 19:53:53;;;;;;;12.05;1.30;;;22.50;19.60;;;;;;5087562;28;20068;-65
2022/02/17 19:56:20;;;;;;;23.27;2.00;;;22.90;19.70;;;;;;5087178;28;20069;-64